createdAt,value
2023-02-25T01:50:15.984Z,37.56
2023-02-25T01:51:16.045Z,37.55
2023-02-25T01:52:16.091Z,37.57
2023-02-25T01:53:16.150Z,37.57
2023-02-25T01:54:16.196Z,37.59
2023-02-25T01:55:16.248Z,37.55
2023-02-25T01:56:16.302Z,37.59
2023-02-25T01:57:16.363Z,37.56
2023-02-25T01:58:16.412Z,37.55
2023-02-25T01:59:16.463Z,37.52
2023-02-25T02:00:16.519Z,37.56
2023-02-25T02:01:16.621Z,37.59
2023-02-25T02:02:16.660Z,37.55
2023-02-25T02:03:16.691Z,37.51
2023-02-25T02:04:16.743Z,37.49
2023-02-25T02:05:16.791Z,37.52
2023-02-25T02:06:16.825Z,37.57
2023-02-25T02:07:16.884Z,37.56
2023-02-25T02:08:16.940Z,37.54
2023-02-25T02:09:17.010Z,37.52
2023-02-25T02:10:17.046Z,37.48
2023-02-25T02:11:17.091Z,37.49
2023-02-25T02:12:17.155Z,37.49
2023-02-25T02:13:17.201Z,37.51
2023-02-25T02:14:17.261Z,37.46
2023-02-25T02:15:17.300Z,37.55
2023-02-25T02:16:17.382Z,37.47
2023-02-25T02:17:17.435Z,37.49
2023-02-25T02:18:17.488Z,37.48
2023-02-25T02:19:17.541Z,37.47
2023-02-25T02:20:17.596Z,37.44
2023-02-25T02:21:17.649Z,37.44
2023-02-25T02:22:17.713Z,37.42
2023-02-25T02:23:17.759Z,37.47
2023-02-25T02:24:17.817Z,37.42
2023-02-25T02:25:17.873Z,37.46
2023-02-25T02:26:17.926Z,37.45
2023-02-25T02:27:17.977Z,37.42
2023-02-25T02:28:18.030Z,37.39
2023-02-25T02:29:18.090Z,37.38
2023-02-25T02:30:18.119Z,37.35
2023-02-25T02:31:18.255Z,37.36
2023-02-25T02:32:18.427Z,37.38
2023-02-25T02:33:18.276Z,37.34
2023-02-25T02:34:18.329Z,37.35
2023-02-25T02:35:18.381Z,37.37
2023-02-25T02:36:18.423Z,37.33
2023-02-25T02:37:18.487Z,37.31
2023-02-25T02:38:18.533Z,37.31
2023-02-25T02:39:18.583Z,37.33
2023-02-25T02:40:18.635Z,37.33
2023-02-25T02:41:18.677Z,37.32
2023-02-25T02:42:18.731Z,37.31
2023-02-25T02:43:18.772Z,37.31
2023-02-25T02:44:18.819Z,37.33
2023-02-25T04:12:23.532Z,36.68
2023-02-25T04:23:24.123Z,36.59
2023-02-25T04:24:24.169Z,36.64
2023-02-25T04:25:24.201Z,36.58
2023-02-25T04:26:24.541Z,36.56
2023-02-25T04:27:24.295Z,36.56
2023-02-25T04:28:24.350Z,36.58
2023-02-25T04:29:24.410Z,36.53
2023-02-25T04:30:24.509Z,36.55
2023-02-25T04:31:24.646Z,36.57
2023-02-25T04:32:24.648Z,36.56
2023-02-25T04:33:24.606Z,36.54
2023-02-25T04:34:24.658Z,36.55
2023-02-25T04:35:24.704Z,36.55
2023-02-25T04:36:24.928Z,36.49
2023-02-25T04:37:24.792Z,36.53
2023-02-25T04:38:24.843Z,36.51
2023-02-25T04:39:24.902Z,36.49
2023-02-25T04:40:24.952Z,36.49
2023-02-25T04:41:25.024Z,36.46
2023-02-25T04:59:25.960Z,36.39
2023-02-25T05:00:26.026Z,36.36
2023-02-25T05:01:26.143Z,36.37
2023-02-25T05:02:26.137Z,36.39
2023-02-25T05:03:26.199Z,36.39
2023-02-25T05:04:26.303Z,36.35
2023-02-25T05:05:26.526Z,36.37
2023-02-25T05:06:26.363Z,36.34
2023-02-25T05:07:26.420Z,36.32
2023-02-25T05:08:26.482Z,36.36
2023-02-25T05:09:26.543Z,36.34
2023-02-25T05:10:26.590Z,36.33
2023-02-25T05:11:26.656Z,36.37
2023-02-25T05:12:26.707Z,36.31
2023-02-25T05:13:26.758Z,36.31
2023-02-25T05:14:26.807Z,36.31
2023-02-25T05:15:26.861Z,36.29
2023-02-25T05:16:27.305Z,36.29
2023-02-25T05:17:26.966Z,36.32
2023-02-25T05:18:27.029Z,36.27
2023-02-25T05:19:27.084Z,36.30
2023-02-25T05:20:27.210Z,36.28
2023-02-25T05:21:27.167Z,36.29
2023-02-25T05:22:27.228Z,36.29
2023-02-25T05:23:27.279Z,36.25
2023-02-25T05:24:27.341Z,36.25
2023-02-25T05:25:27.395Z,36.26
2023-02-25T05:26:27.437Z,36.21
2023-02-25T05:27:27.481Z,36.22
2023-02-25T05:28:27.548Z,36.24
2023-02-25T05:29:27.641Z,36.22
2023-02-25T05:30:27.666Z,36.22
2023-02-25T05:31:27.889Z,36.23
2023-02-25T05:32:27.903Z,36.23
2023-02-25T05:33:27.819Z,36.20
2023-02-25T05:34:27.873Z,36.22
2023-02-25T05:35:27.932Z,36.18
2023-02-25T05:36:28.673Z,36.18
2023-02-25T05:37:28.051Z,36.17
2023-02-25T05:38:28.091Z,36.18
2023-02-25T05:39:28.149Z,36.18
2023-02-25T05:40:28.197Z,36.18
2023-02-25T05:41:28.249Z,36.15
2023-02-25T05:42:28.317Z,36.16
2023-02-25T05:43:28.370Z,36.18
2023-02-25T05:44:28.419Z,36.15
2023-02-25T05:45:28.467Z,36.14
2023-02-25T05:46:28.586Z,36.12
2023-02-25T05:47:28.573Z,36.13
2023-02-25T05:48:28.631Z,36.13
2023-02-25T05:49:28.686Z,36.13
2023-02-25T05:50:28.750Z,36.11
2023-02-25T05:51:28.805Z,36.06
2023-02-25T05:52:28.875Z,36.09
2023-02-25T05:53:28.924Z,36.07
2023-02-25T06:40:30.128Z,35.83
2023-02-25T06:41:30.136Z,35.84
2023-02-25T06:42:30.162Z,35.83
2023-02-25T06:43:30.174Z,35.84
2023-02-25T06:44:30.173Z,35.82
2023-02-25T06:45:30.199Z,35.84
2023-02-25T06:46:30.297Z,35.81
2023-02-25T06:47:30.219Z,35.81
2023-02-25T06:48:30.234Z,35.81
2023-02-25T06:49:30.247Z,35.79
2023-02-25T06:50:30.269Z,35.82
2023-02-25T06:51:30.282Z,35.79
2023-02-25T06:52:30.286Z,35.76
2023-02-25T06:53:30.300Z,35.78
2023-02-25T06:54:30.306Z,35.80
2023-02-25T06:55:30.327Z,35.80
2023-02-25T06:56:30.342Z,35.77
2023-02-25T06:57:30.357Z,35.80
2023-02-25T06:58:30.367Z,35.76
2023-02-25T06:59:30.379Z,35.74
2023-02-25T07:00:30.463Z,35.74
2023-02-25T07:01:30.442Z,35.76
2023-02-25T07:02:30.435Z,35.73
2023-02-25T07:03:30.443Z,35.77
2023-02-25T07:04:30.482Z,35.73
2023-02-25T07:05:30.478Z,35.71
2023-02-25T07:06:30.490Z,35.71
2023-02-25T07:07:30.510Z,35.73
2023-02-25T07:08:30.516Z,35.69
2023-02-25T07:09:30.526Z,35.71
2023-02-25T07:10:30.541Z,35.71
2023-02-25T07:11:30.558Z,35.66
2023-02-25T07:12:30.562Z,35.67
2023-02-25T07:13:30.581Z,35.70
2023-02-25T07:14:30.585Z,35.72
2023-02-25T07:15:30.637Z,35.69
2023-02-25T07:16:30.622Z,35.68
2023-02-25T07:17:30.706Z,35.68
2023-02-25T07:18:30.645Z,35.69
2023-02-25T07:19:30.662Z,35.67
2023-02-25T07:20:30.676Z,35.67
2023-02-25T07:21:30.686Z,35.68
2023-02-25T07:22:30.715Z,35.66
2023-02-25T07:23:30.724Z,35.64
2023-02-25T07:24:30.754Z,35.66
2023-02-25T07:25:30.852Z,35.64
2023-02-25T07:26:30.787Z,35.63
2023-02-25T07:27:30.785Z,35.65
2023-02-25T07:28:30.807Z,35.62
2023-02-25T07:29:30.815Z,35.59
2023-02-25T07:30:30.823Z,35.62
2023-02-25T07:31:30.969Z,35.62
2023-02-25T07:32:31.004Z,35.60
2023-02-25T07:33:30.894Z,35.62
2023-02-25T07:34:30.880Z,35.60
2023-02-25T07:35:30.911Z,35.60
2023-02-25T07:36:30.926Z,35.58
2023-02-25T07:37:30.948Z,35.60
2023-02-25T07:38:30.963Z,35.60
2023-02-25T07:39:30.982Z,35.60
2023-02-25T07:40:31.002Z,35.56
2023-02-25T07:41:31.018Z,35.55
2023-02-25T07:42:31.053Z,35.53
2023-02-25T07:43:31.052Z,35.56
2023-02-25T07:44:31.076Z,35.57
2023-02-25T07:45:31.090Z,35.52
2023-02-25T07:46:31.223Z,35.56
2023-02-25T07:47:31.124Z,35.54
2023-02-25T07:48:31.153Z,35.56
2023-02-25T07:49:31.173Z,35.57
2023-02-25T07:50:31.268Z,35.53
2023-02-25T07:51:31.215Z,35.53
2023-02-25T07:52:31.241Z,35.53
2023-02-25T07:53:31.249Z,35.53
2023-02-25T07:54:31.271Z,35.52
2023-02-25T07:55:31.293Z,35.50
2023-02-25T07:56:31.315Z,35.52
2023-02-25T07:57:31.325Z,35.52
2023-02-25T07:58:31.351Z,35.49
2023-02-25T07:59:31.373Z,35.50
2023-02-25T08:00:31.391Z,35.52
2023-02-25T08:01:31.418Z,35.48
2023-02-25T08:02:31.494Z,35.45
2023-02-25T08:03:31.449Z,35.46
2023-02-25T08:04:31.467Z,35.48
2023-02-25T08:05:31.474Z,35.46
2023-02-25T08:06:31.491Z,35.45
2023-02-25T08:07:31.493Z,35.46
2023-02-25T08:08:31.498Z,35.44
2023-02-25T08:09:31.519Z,35.47
2023-02-25T08:10:31.542Z,35.45
2023-02-25T08:11:31.569Z,35.41
2023-02-25T08:12:31.574Z,35.46
2023-02-25T08:13:31.584Z,35.46
2023-02-25T08:14:31.592Z,35.46
2023-02-25T08:15:31.613Z,35.43
2023-02-25T08:16:31.628Z,35.43
2023-02-25T08:17:31.669Z,35.40
2023-02-25T08:18:31.658Z,35.41
2023-02-25T08:19:31.677Z,35.43
2023-02-25T08:20:31.689Z,35.43
2023-02-25T08:21:31.721Z,35.44
2023-02-25T08:22:31.735Z,35.39
2023-02-25T08:23:31.744Z,35.40
2023-02-25T08:24:31.764Z,35.42
2023-02-25T08:25:31.781Z,35.40
2023-02-25T08:26:31.815Z,35.40
2023-02-25T08:27:31.837Z,35.40
2023-02-25T08:28:34.284Z,35.40
2023-02-25T08:29:31.827Z,35.38
2023-02-25T08:30:31.821Z,35.38
2023-02-25T08:31:31.910Z,35.38
2023-02-25T08:32:32.003Z,35.40
2023-02-25T08:33:31.804Z,35.35
2023-02-25T08:34:31.787Z,35.36
2023-02-25T08:35:31.774Z,35.36
2023-02-25T08:36:31.793Z,35.36
2023-02-25T08:37:31.767Z,35.36
2023-02-25T08:38:31.744Z,35.34
2023-02-25T08:39:31.733Z,35.32
2023-02-25T08:40:31.730Z,35.34
2023-02-25T08:41:31.701Z,35.31
2023-02-25T08:42:31.703Z,35.34
2023-02-25T08:43:31.715Z,35.34
2023-02-25T08:44:31.694Z,35.34
2023-02-25T08:45:31.678Z,35.33
2023-02-25T08:46:31.768Z,35.29
2023-02-25T08:47:31.668Z,35.28
2023-02-25T08:48:31.656Z,35.31
2023-02-25T08:49:31.635Z,35.30
2023-02-25T08:50:31.626Z,35.26
2023-02-25T08:51:31.626Z,35.27
2023-02-25T08:52:31.609Z,35.29
2023-02-25T08:53:31.615Z,35.28
2023-02-25T08:54:31.600Z,35.30
2023-02-25T08:55:31.603Z,35.29
2023-02-25T08:56:31.584Z,35.26
2023-02-25T08:57:31.567Z,35.26
2023-02-25T08:58:31.587Z,35.28
2023-02-25T08:59:31.566Z,35.25
2023-02-25T09:00:31.666Z,35.24
2023-02-25T09:01:31.544Z,35.24
2023-02-25T09:02:32.083Z,35.23
2023-02-25T09:03:31.523Z,35.22
2023-02-25T09:04:31.588Z,35.23
2023-02-25T09:05:31.524Z,35.23
2023-02-25T09:06:31.490Z,35.23
2023-02-25T09:07:31.481Z,35.21
2023-02-25T09:08:31.502Z,35.21
2023-02-25T09:09:31.454Z,35.21
2023-02-25T09:10:44.580Z,35.23
2023-02-25T09:11:32.421Z,35.20
2023-02-25T09:12:31.409Z,35.21
2023-02-25T09:13:31.397Z,35.21
2023-02-25T09:14:31.370Z,35.19
2023-02-25T09:15:31.362Z,35.18
2023-02-25T09:16:31.382Z,35.17
2023-02-25T09:17:31.303Z,35.19
2023-02-25T09:18:31.326Z,35.16
2023-02-25T09:19:31.289Z,35.19
2023-02-25T09:20:31.272Z,35.15
2023-02-25T09:21:31.261Z,35.17
2023-02-25T09:22:31.247Z,35.15
2023-02-25T09:23:31.273Z,35.16
2023-02-25T09:24:31.228Z,35.14
2023-02-25T09:25:31.200Z,35.16
2023-02-25T09:26:31.183Z,35.15
2023-02-25T09:27:31.174Z,35.14
2023-02-25T09:28:31.168Z,35.14
2023-02-25T09:29:31.167Z,35.13
2023-02-25T09:30:31.144Z,35.13
2023-02-25T09:31:31.236Z,35.13
2023-02-25T09:32:31.276Z,35.11
2023-02-25T09:33:31.152Z,35.11
2023-02-25T09:34:31.253Z,35.09
2023-02-25T09:35:31.196Z,35.10
2023-02-25T09:36:31.204Z,35.09
2023-02-25T09:37:31.231Z,35.07
2023-02-25T09:38:31.237Z,35.08
2023-02-25T09:39:31.256Z,35.10
2023-02-25T09:40:31.278Z,35.09
2023-02-25T09:41:31.289Z,35.08
2023-02-25T09:42:31.298Z,35.08
2023-02-25T09:43:31.309Z,35.06
2023-02-25T09:44:31.323Z,35.05
2023-02-25T09:45:31.406Z,35.07
2023-02-25T09:46:31.355Z,35.07
2023-02-25T09:47:31.424Z,35.02
2023-02-25T09:48:31.378Z,35.03
2023-02-25T09:49:31.397Z,35.02
2023-02-25T09:50:31.407Z,35.01
2023-02-25T09:51:31.418Z,35.01
2023-02-25T09:52:31.429Z,35.00
2023-02-25T09:53:31.435Z,34.99
2023-02-25T09:54:31.447Z,34.99
2023-02-25T09:55:31.459Z,34.99
2023-02-25T09:56:31.470Z,34.97
2023-02-25T09:57:31.488Z,34.96
2023-02-25T09:58:31.534Z,34.96
2023-02-25T09:59:31.527Z,34.94
2023-02-25T10:00:31.537Z,34.94
2023-02-25T10:01:31.542Z,34.96
2023-02-25T10:02:31.656Z,34.97
2023-02-25T10:03:31.625Z,34.95
2023-02-25T10:04:31.590Z,34.97
2023-02-25T10:05:31.618Z,34.95
2023-02-25T10:06:31.612Z,34.97
2023-02-25T10:07:31.624Z,34.96
2023-02-25T10:08:31.635Z,34.96
2023-02-25T10:09:31.650Z,34.96
2023-02-25T10:10:31.674Z,34.93
2023-02-25T10:11:31.683Z,34.92
2023-02-25T10:12:31.702Z,34.96
2023-02-25T10:13:31.721Z,34.95
2023-02-25T10:14:31.741Z,34.95
2023-02-25T10:15:31.749Z,34.92
2023-02-25T10:16:31.783Z,34.90
2023-02-25T10:17:31.780Z,34.91
2023-02-25T10:18:31.788Z,34.90
2023-02-25T10:19:31.811Z,34.92
2023-02-25T10:20:31.844Z,34.93
2023-02-25T10:21:31.845Z,34.93
2023-02-25T10:22:31.861Z,34.91
2023-02-25T10:23:31.867Z,34.88
2023-02-25T10:24:31.897Z,34.87
2023-02-25T10:25:31.910Z,34.88
2023-02-25T10:26:31.932Z,34.89
2023-02-25T10:27:33.139Z,34.86
2023-02-25T10:28:31.973Z,34.86
2023-02-25T10:29:31.991Z,34.86
2023-02-25T10:30:32.072Z,34.85
2023-02-25T10:31:32.171Z,34.85
2023-02-25T10:32:32.068Z,34.84
2023-02-25T10:33:32.042Z,34.83
2023-02-25T10:34:32.068Z,34.85
2023-02-25T10:35:32.081Z,34.84
2023-02-25T10:36:32.118Z,34.85
2023-02-25T10:37:32.109Z,34.83
2023-02-25T10:38:32.132Z,34.85
2023-02-25T10:39:32.150Z,34.83
2023-02-25T10:40:32.172Z,34.83
2023-02-25T10:41:32.183Z,34.82
2023-02-25T10:42:32.199Z,34.83
2023-02-25T10:43:32.214Z,34.84
2023-02-25T10:44:32.241Z,34.84
2023-02-25T10:45:32.292Z,34.82
2023-02-25T10:46:32.361Z,34.79
2023-02-25T10:47:32.289Z,34.81
2023-02-25T10:48:32.310Z,34.80
2023-02-25T10:49:32.320Z,34.79
2023-02-25T10:50:45.074Z,34.81
2023-02-25T10:51:33.332Z,34.79
2023-02-25T10:52:32.320Z,34.75
2023-02-25T10:53:32.309Z,34.75
2023-02-25T10:54:32.300Z,34.77
2023-02-25T10:55:32.295Z,34.74
2023-02-25T10:56:32.286Z,34.77
2023-02-25T10:57:32.301Z,34.74
2023-02-25T10:58:32.279Z,34.76
2023-02-25T10:59:32.271Z,34.75
2023-02-25T11:00:32.275Z,34.76
2023-02-25T11:01:32.291Z,34.75
2023-02-25T11:02:32.280Z,34.74
2023-02-25T11:03:32.254Z,34.75
2023-02-25T11:04:32.260Z,34.73
2023-02-25T11:05:32.255Z,34.70
2023-02-25T11:06:32.253Z,34.72
2023-02-25T11:07:32.261Z,34.71
2023-02-25T11:08:32.248Z,34.69
2023-02-25T11:09:32.240Z,34.70
2023-02-25T11:10:32.239Z,34.68
2023-02-25T11:11:32.548Z,34.68
2023-02-25T11:12:32.257Z,34.70
2023-02-25T11:13:32.218Z,34.67
2023-02-25T11:14:32.217Z,34.68
2023-02-25T11:15:44.360Z,34.67
2023-02-25T11:16:33.262Z,34.67
2023-02-25T11:17:32.189Z,34.70
2023-02-25T11:18:32.173Z,34.64
2023-02-25T11:19:32.164Z,34.66
2023-02-25T11:20:32.164Z,34.66
2023-02-25T11:21:32.160Z,34.65
2023-02-25T11:22:32.151Z,34.63
2023-02-25T11:23:32.180Z,34.61
2023-02-25T11:24:32.151Z,34.63
2023-02-25T11:25:32.135Z,34.62
2023-02-25T11:26:32.164Z,34.62
2023-02-25T11:27:32.126Z,34.60
2023-02-25T11:29:32.112Z,34.62
2023-02-25T14:52:35.950Z,34.29
2023-02-25T14:54:35.918Z,34.29
2023-02-25T14:55:35.971Z,34.27
2023-02-25T14:56:35.974Z,34.26
2023-02-25T14:57:36.008Z,34.26
2023-02-25T14:58:36.034Z,34.26
2023-02-25T14:59:36.055Z,34.26
2023-02-25T15:00:36.092Z,34.25
2023-02-25T15:01:36.149Z,34.26
2023-02-25T15:02:36.154Z,34.25
2023-02-25T15:03:36.148Z,34.27
2023-02-25T15:04:36.173Z,34.25
2023-02-25T15:05:36.182Z,34.25
2023-02-25T15:06:36.196Z,34.25
2023-02-25T15:07:36.228Z,34.24
2023-02-25T15:08:36.247Z,34.23
2023-02-25T15:09:36.266Z,34.24
2023-02-25T15:10:36.301Z,34.24
2023-02-25T15:11:36.321Z,34.21
2023-02-25T15:20:36.543Z,34.20
2023-02-25T15:21:36.558Z,34.23
2023-02-25T15:22:36.590Z,34.20
2023-02-25T15:23:36.614Z,34.22
2023-02-25T15:24:36.641Z,34.25
2023-02-25T15:25:36.699Z,34.20
2023-02-25T15:26:36.702Z,34.21
2023-02-25T15:27:36.778Z,34.22
2023-02-25T15:28:36.760Z,34.22
2023-02-25T15:29:36.775Z,34.22
2023-02-25T15:30:36.816Z,34.20
2023-02-25T15:31:36.878Z,34.20
2023-02-25T15:32:36.858Z,34.18
2023-02-25T15:33:36.891Z,34.21
2023-02-25T15:34:36.920Z,34.20
2023-02-25T15:35:36.947Z,34.20
2023-02-25T15:36:36.969Z,34.21
2023-02-25T15:37:36.990Z,34.16
2023-02-25T15:38:37.018Z,34.18
2023-02-25T15:39:37.039Z,34.20
2023-02-25T15:40:37.065Z,34.19
2023-02-25T15:41:37.109Z,34.19
2023-02-25T15:42:37.135Z,34.14
2023-02-25T15:43:37.149Z,34.14
2023-02-25T15:44:37.173Z,34.16
2023-02-25T15:45:37.201Z,34.20
2023-02-25T15:46:37.315Z,34.17
2023-02-25T15:47:37.254Z,34.18
2023-02-25T15:48:37.293Z,34.18
2023-02-25T15:49:37.308Z,34.18
2023-02-25T15:50:37.338Z,34.18
2023-02-25T15:51:37.366Z,34.17
2023-02-25T15:52:37.399Z,34.16
2023-02-25T15:53:37.435Z,34.17
2023-02-25T15:54:37.460Z,34.18
2023-02-25T15:55:37.488Z,34.18
2023-02-25T15:56:37.515Z,34.19
2023-02-25T15:57:37.543Z,34.18
2023-02-25T15:58:39.824Z,34.15
2023-02-25T15:59:37.609Z,34.16
2023-02-25T16:00:37.706Z,34.16
2023-02-25T16:01:37.798Z,34.16
2023-02-25T16:02:37.707Z,34.17
2023-02-25T16:03:37.733Z,34.15
2023-02-25T16:04:37.770Z,34.17
2023-02-25T16:05:37.798Z,34.15
2023-02-25T16:06:37.831Z,34.16
2023-02-25T16:07:37.858Z,34.15
2023-02-25T16:08:37.889Z,34.14
2023-02-25T16:09:37.924Z,34.14
2023-02-25T16:10:37.951Z,34.17
2023-02-25T16:11:37.984Z,34.15
2023-02-25T16:12:38.013Z,34.15
2023-02-25T16:13:38.051Z,34.15
2023-02-25T16:14:38.087Z,34.14
2023-02-25T16:15:38.114Z,34.13
2023-02-25T16:16:38.141Z,34.13
2023-02-25T16:17:38.167Z,34.13
2023-02-25T16:18:38.202Z,34.10
2023-02-25T16:19:38.223Z,34.11
2023-02-25T16:20:38.250Z,34.11
2023-02-25T16:21:38.289Z,34.09
2023-02-25T16:22:38.309Z,34.12
2023-02-25T16:23:38.329Z,34.11
2023-02-25T16:24:38.360Z,34.08
2023-02-25T16:25:38.386Z,34.08
2023-02-25T16:26:38.427Z,34.08
2023-02-25T16:27:38.451Z,34.12
2023-02-25T16:53:39.253Z,34.03
2023-02-25T16:54:39.271Z,34.05
2023-02-25T16:55:39.307Z,34.04
2023-02-25T16:56:39.343Z,34.02
2023-02-25T16:57:39.393Z,34.02
2023-02-25T16:58:39.411Z,34.02
2023-02-25T16:59:39.428Z,34.01
2023-02-25T17:00:39.473Z,34.02
2023-02-25T17:01:39.498Z,34.03
2023-02-25T17:02:39.554Z,34.00
2023-02-25T21:08:45.952Z,33.06
2023-02-25T21:09:45.993Z,33.06
2023-02-25T21:10:46.004Z,33.09
2023-02-25T21:11:46.041Z,33.08
2023-02-25T21:12:46.079Z,33.10
2023-02-25T21:13:46.122Z,33.08
2023-02-25T21:14:46.138Z,33.08
2023-02-25T21:15:46.172Z,33.10
2023-02-25T21:16:46.234Z,33.07
2023-02-25T21:17:46.234Z,33.05
2023-02-25T21:20:46.328Z,33.05
2023-02-25T21:28:46.561Z,33.03
2023-02-25T21:29:46.593Z,33.03
2023-02-25T21:30:46.687Z,33.03
2023-02-25T21:31:46.771Z,33.01
2023-02-25T21:32:46.684Z,33.03
2023-02-25T21:33:46.709Z,33.05
2023-02-25T21:35:46.784Z,33.01
2023-02-25T21:36:46.835Z,33.02
2023-02-25T21:37:46.842Z,33.01
2023-02-25T21:38:46.896Z,33.03
2023-02-25T21:39:46.910Z,33.03
2023-02-25T21:40:46.932Z,33.02
2023-02-25T21:47:47.180Z,32.95
2023-02-25T21:48:47.208Z,32.93
2023-02-25T21:49:47.235Z,32.93
2023-02-25T21:50:47.264Z,32.93
2023-02-25T21:51:47.304Z,32.95
2023-02-25T21:52:47.340Z,32.93
2023-02-25T21:53:47.370Z,32.93
2023-02-25T21:54:47.405Z,32.95
2023-02-25T21:55:47.447Z,32.94
2023-02-25T21:56:47.460Z,32.93
2023-02-25T21:57:47.502Z,32.92
2023-02-25T21:58:47.544Z,32.90
2023-02-25T21:59:47.560Z,32.90
2023-02-25T22:00:47.609Z,32.91
2023-02-25T22:01:47.748Z,32.90
2023-02-25T22:02:47.678Z,32.89
2023-02-25T22:03:47.707Z,32.87
2023-02-25T22:04:47.807Z,32.88
2023-02-25T22:05:47.767Z,32.89
2023-02-25T22:06:47.787Z,32.88
2023-02-25T22:07:47.818Z,32.88
2023-02-25T22:08:47.859Z,32.89
2023-02-25T22:09:47.892Z,32.86
2023-02-25T22:10:47.912Z,32.87
2023-02-25T22:11:47.948Z,32.85
2023-02-25T22:12:47.984Z,32.85
2023-02-25T22:13:48.012Z,32.84
2023-02-25T22:14:48.048Z,32.84
2023-02-25T22:15:48.120Z,32.84
2023-02-25T22:16:48.115Z,32.85
2023-02-25T22:17:48.142Z,32.85
2023-02-25T22:18:48.217Z,32.85
2023-02-25T22:19:48.202Z,32.84
2023-02-25T22:20:48.225Z,32.84
2023-02-25T22:21:48.264Z,32.83
2023-02-25T22:22:48.297Z,32.81
2023-02-25T22:23:48.342Z,32.81
2023-02-25T22:24:48.350Z,32.82
2023-02-25T22:25:48.382Z,32.84
2023-02-25T22:26:48.406Z,32.81
2023-02-25T22:27:48.435Z,32.81
2023-02-25T22:28:48.470Z,32.84
2023-02-25T22:29:48.494Z,32.79
2023-02-25T22:30:48.649Z,32.82
2023-02-25T22:31:48.637Z,32.78
2023-02-25T22:32:48.574Z,32.79
2023-02-25T22:33:48.606Z,32.79
2023-02-25T22:34:48.631Z,32.80
2023-02-25T23:19:49.932Z,32.68
2023-02-25T23:27:50.189Z,32.67
2023-02-25T23:28:50.214Z,32.66
2023-02-25T23:29:50.249Z,32.67
2023-02-25T23:30:50.306Z,32.67
2023-02-25T23:31:50.453Z,32.68
2023-02-25T23:32:50.333Z,32.67
2023-02-25T23:33:50.367Z,32.65
2023-02-25T23:34:50.405Z,32.64
2023-02-25T23:35:50.426Z,32.63
